createdAt,value
2022-08-11T00:00:00.417Z,1.55
2022-08-11T00:05:04.061Z,1.27
2022-08-11T00:10:09.785Z,1.23
2022-08-11T00:15:11.598Z,1.20
2022-08-11T00:20:16.933Z,1.30
2022-08-11T00:25:19.818Z,1.33
2022-08-11T00:30:21.246Z,1.50
2022-08-11T00:35:55.087Z,1.55
2022-08-11T00:41:06.383Z,1.20
2022-08-11T00:46:07.746Z,1.83
2022-08-11T00:51:09.149Z,1.40
2022-08-11T00:56:34.047Z,1.40
2022-08-11T01:01:38.472Z,1.60
2022-08-11T01:06:49.458Z,1.08
2022-08-11T01:11:57.297Z,1.40
2022-08-11T01:17:35.329Z,1.73
2022-08-11T01:22:55.640Z,1.40
2022-08-11T01:28:06.154Z,1.70
2022-08-11T01:33:13.317Z,1.27
2022-08-11T01:38:34.720Z,1.33
2022-08-11T01:44:11.365Z,1.40
2022-08-11T01:50:09.534Z,1.65
2022-08-11T01:55:19.661Z,1.42
2022-08-11T02:00:22.318Z,1.60
2022-08-11T02:05:42.572Z,1.30
2022-08-11T02:11:04.993Z,1.50
2022-08-11T02:16:07.153Z,1.42
2022-08-11T02:21:30.666Z,1.70
2022-08-11T02:26:44.104Z,1.88
2022-08-11T02:32:28.814Z,1.25
2022-08-11T02:37:32.231Z,1.50
2022-08-11T02:42:52.197Z,1.30
2022-08-11T02:48:31.263Z,1.50
2022-08-11T02:53:58.014Z,1.35
2022-08-11T02:59:23.704Z,1.42
2022-08-11T03:04:49.981Z,1.33
2022-08-11T03:09:55.480Z,1.70
2022-08-11T03:15:44.802Z,1.67
2022-08-11T03:20:51.572Z,1.60
2022-08-11T03:25:58.810Z,1.80
2022-08-11T03:31:15.307Z,1.75
2022-08-11T03:37:15.512Z,1.52
2022-08-11T03:42:03.950Z,1.77
2022-08-11T03:47:18.945Z,1.63
2022-08-11T03:52:27.735Z,1.40
2022-08-11T03:57:47.826Z,1.38
2022-08-11T04:02:49.261Z,1.40
2022-08-11T04:07:59.604Z,1.50
2022-08-11T04:13:10.374Z,1.63
2022-08-11T04:18:20.320Z,2.35
2022-08-11T04:24:35.745Z,2.00
2022-08-11T04:28:58.453Z,1.60
2022-08-11T04:34:07.121Z,1.90
2022-08-11T04:39:11.719Z,1.70
2022-08-11T04:44:13.182Z,2.20
2022-08-11T04:49:42.602Z,2.00
2022-08-11T04:55:02.787Z,1.60
2022-08-11T05:00:27.115Z,1.65
2022-08-11T05:05:36.019Z,1.80
2022-08-11T05:10:43.285Z,1.33
2022-08-11T05:16:10.454Z,1.73
2022-08-11T05:21:44.864Z,1.80
2022-08-11T05:27:12.819Z,1.90
2022-08-11T05:32:35.069Z,1.73
2022-08-11T05:38:02.545Z,2.00
2022-08-11T05:43:27.239Z,1.30
2022-08-11T05:48:49.502Z,1.52
2022-08-11T05:54:28.705Z,1.80
2022-08-11T05:59:32.114Z,1.70
2022-08-11T06:04:34.509Z,1.52
2022-08-11T06:09:56.362Z,1.80
2022-08-11T06:15:01.907Z,1.77
2022-08-11T06:20:07.548Z,1.80
2022-08-11T06:25:10.115Z,1.80
2022-08-11T06:30:14.653Z,2.20
2022-08-11T06:35:19.102Z,2.40
2022-08-11T06:40:38.844Z,1.90
2022-08-11T06:46:03.347Z,1.73
2022-08-11T06:51:12.222Z,1.67
2022-08-11T06:56:33.470Z,1.90
2022-08-11T07:01:38.084Z,1.90
2022-08-11T07:07:14.952Z,1.85
2022-08-11T07:12:47.104Z,1.40
2022-08-11T07:18:10.244Z,1.77
2022-08-11T07:23:30.931Z,2.00
2022-08-11T07:28:52.095Z,1.75
2022-08-11T07:34:06.463Z,1.77
2022-08-11T07:39:15.546Z,1.52
2022-08-11T07:44:17.568Z,2.03
2022-08-11T07:49:37.928Z,1.60
2022-08-11T07:54:40.469Z,1.88
2022-08-11T08:00:04.566Z,1.70
2022-08-11T08:05:25.482Z,1.92
2022-08-11T08:16:05.903Z,1.83
2022-08-11T08:21:14.707Z,1.65
2022-08-11T08:26:35.610Z,1.30
2022-08-11T08:31:37.177Z,1.25
2022-08-11T08:36:40.620Z,1.70
2022-08-11T08:41:43.505Z,1.48
2022-08-11T08:46:46.288Z,1.80
2022-08-11T08:51:58.707Z,1.40
2022-08-11T08:57:13.372Z,1.08
2022-08-11T09:02:14.978Z,1.30
2022-08-11T09:07:17.335Z,1.33
2022-08-11T09:12:36.467Z,1.40
2022-08-11T09:17:42.027Z,1.25
2022-08-11T09:28:24.991Z,1.45
2022-08-11T09:33:27.735Z,1.33
2022-08-11T09:38:49.735Z,1.30
2022-08-11T09:44:23.712Z,1.20
2022-08-11T09:49:25.742Z,1.23
2022-08-11T09:54:27.395Z,1.30
2022-08-11T09:59:28.924Z,1.30
2022-08-11T10:04:36.366Z,1.35
2022-08-11T10:09:40.773Z,1.08
2022-08-11T10:15:23.094Z,1.40
2022-08-11T10:20:25.916Z,0.98
2022-08-11T10:25:45.846Z,1.30
2022-08-11T10:31:06.841Z,1.20
2022-08-11T10:36:16.150Z,1.70
2022-08-11T10:41:37.575Z,1.27
2022-08-11T10:52:38.865Z,0.90
2022-08-11T10:58:04.951Z,1.20
2022-08-11T11:03:22.856Z,1.17
2022-08-11T11:14:22.427Z,0.77
2022-08-11T11:19:30.075Z,1.10
2022-08-11T11:24:45.836Z,0.95
2022-08-11T11:30:10.515Z,1.00
2022-08-11T11:35:12.155Z,1.17
2022-08-11T11:40:14.602Z,0.85
2022-08-11T11:45:23.907Z,1.00
2022-08-11T11:50:31.408Z,1.20
2022-08-11T11:55:35.250Z,0.90
2022-08-11T12:00:55.967Z,0.73
2022-08-11T12:05:57.590Z,1.00
2022-08-11T12:11:19.066Z,0.90
2022-08-11T12:16:34.371Z,0.90
2022-08-11T12:21:38.700Z,0.80
2022-08-11T12:27:15.172Z,0.68
2022-08-11T12:32:20.239Z,0.70
2022-08-11T12:37:23.785Z,0.75
2022-08-11T12:42:43.942Z,0.90
2022-08-11T12:48:57.497Z,1.20
2022-08-11T12:53:29.754Z,0.80
2022-08-11T12:58:31.326Z,0.82
2022-08-11T13:03:56.693Z,0.70
2022-08-11T13:09:00.989Z,0.90
2022-08-11T13:14:03.223Z,0.70
2022-08-11T13:19:04.731Z,0.85
2022-08-11T13:24:06.383Z,0.70
2022-08-11T13:29:07.879Z,0.90
2022-08-11T13:34:09.876Z,0.80
2022-08-11T13:39:11.896Z,0.80
2022-08-11T13:44:15.818Z,0.70
2022-08-11T13:49:20.938Z,0.98
2022-08-11T13:54:24.228Z,0.70
2022-08-11T13:59:30.792Z,0.77
2022-08-11T14:04:40.776Z,1.02
2022-08-11T14:09:43.373Z,0.80
2022-08-11T14:14:47.579Z,0.70
2022-08-11T14:19:51.608Z,0.60
2022-08-11T14:24:53.438Z,0.82
2022-08-11T14:29:54.987Z,0.80
2022-08-11T14:34:56.701Z,0.70
2022-08-11T14:40:03.214Z,0.90
2022-08-11T14:45:55.532Z,0.75
2022-08-11T14:50:56.250Z,0.77
2022-08-11T14:56:16.155Z,0.60
2022-08-11T15:01:53.443Z,0.40
2022-08-11T15:06:55.007Z,0.90
2022-08-11T15:12:32.861Z,0.50
2022-08-11T15:17:42.920Z,0.70
2022-08-11T15:23:03.716Z,0.60
2022-08-11T15:28:24.483Z,1.00
2022-08-11T15:33:45.613Z,0.68
2022-08-11T15:38:58.718Z,0.50
2022-08-11T15:44:20.002Z,0.50
2022-08-11T15:50:12.721Z,1.02
2022-08-11T15:54:51.867Z,0.90
2022-08-11T16:00:11.811Z,0.70
2022-08-11T16:05:44.960Z,1.90
2022-08-11T16:10:37.751Z,0.50
2022-08-11T16:16:03.802Z,1.17
2022-08-11T16:21:07.193Z,0.60
2022-08-11T16:27:10.019Z,0.57
2022-08-11T16:31:33.341Z,1.00
2022-08-11T16:36:53.678Z,1.17
2022-08-11T16:43:05.310Z,1.08
2022-08-11T16:52:56.755Z,0.70
2022-08-11T16:58:17.473Z,0.70
2022-08-11T17:03:38.079Z,0.77
2022-08-11T17:09:02.215Z,0.73
2022-08-11T17:14:14.998Z,0.63
2022-08-11T17:19:18.911Z,0.63
2022-08-11T17:24:41.713Z,0.93
2022-08-11T17:29:55.442Z,0.65
2022-08-11T17:35:17.782Z,0.50
2022-08-11T17:40:24.642Z,0.85
2022-08-11T17:45:45.602Z,0.70
2022-08-11T17:50:48.287Z,0.70
2022-08-11T17:56:09.524Z,0.75
2022-08-11T18:01:12.257Z,1.02
2022-08-11T18:06:14.531Z,0.80
2022-08-11T18:12:07.349Z,0.70
2022-08-11T18:17:16.149Z,1.13
2022-08-11T18:22:41.491Z,0.75
2022-08-11T18:28:04.726Z,1.02
2022-08-11T18:33:50.543Z,0.70
2022-08-11T18:39:06.858Z,0.80
2022-08-11T18:44:28.875Z,0.98
2022-08-11T18:50:02.253Z,1.05
2022-08-11T18:55:26.931Z,0.80
2022-08-11T19:00:47.981Z,0.73
2022-08-11T19:06:38.168Z,0.77
2022-08-11T19:11:49.800Z,0.90
2022-08-11T19:17:10.038Z,0.50
2022-08-11T19:27:51.236Z,0.90
2022-08-11T19:33:12.617Z,0.80
2022-08-11T19:38:32.836Z,1.08
2022-08-11T19:49:14.839Z,0.77
2022-08-11T19:54:35.450Z,0.90
2022-08-11T19:59:56.637Z,1.08
2022-08-11T20:05:16.938Z,1.00
2022-08-11T20:15:58.106Z,1.00
2022-08-11T20:21:25.117Z,0.90
2022-08-11T20:26:49.106Z,1.03
2022-08-11T20:32:09.813Z,1.00
2022-08-11T20:37:30.687Z,1.20
2022-08-11T20:42:52.349Z,1.45
2022-08-11T20:48:14.631Z,1.00
2022-08-11T20:53:39.225Z,0.95
2022-08-11T20:59:14.411Z,1.15
2022-08-11T21:04:54.270Z,0.98
2022-08-11T21:10:22.763Z,1.10
2022-08-11T21:16:03.217Z,1.23
2022-08-11T21:21:25.175Z,1.10
2022-08-11T21:26:46.332Z,1.00
2022-08-11T21:32:06.646Z,1.20
2022-08-11T21:42:47.007Z,0.93
2022-08-11T21:48:07.790Z,1.38
2022-08-11T21:53:27.955Z,1.13
2022-08-11T21:58:48.634Z,1.20
2022-08-11T22:04:08.671Z,1.33
2022-08-11T22:09:29.002Z,1.02
2022-08-11T22:14:49.207Z,1.20
2022-08-11T22:20:09.835Z,1.20
2022-08-11T22:25:38.625Z,0.98
2022-08-11T22:30:58.883Z,1.35
2022-08-11T22:41:40.822Z,1.10
2022-08-11T22:47:01.074Z,0.95
2022-08-11T22:52:21.237Z,1.35
2022-08-11T22:58:00.148Z,1.30
2022-08-11T23:03:36.877Z,1.17
2022-08-11T23:08:58.454Z,1.35
2022-08-11T23:14:21.479Z,1.35
2022-08-11T23:25:21.698Z,1.30
2022-08-11T23:30:42.975Z,1.70
2022-08-11T23:36:05.464Z,1.23
2022-08-11T23:41:25.935Z,1.08
2022-08-11T23:46:46.080Z,1.25
2022-08-11T23:52:06.882Z,1.60
2022-08-11T23:57:27.110Z,1.50
